createdAt,value
2018-05-25T00:00:04.175Z,15.81
2018-05-25T00:03:07.491Z,15.79
2018-05-25T00:06:11.570Z,15.86
2018-05-25T00:09:14.897Z,15.90
2018-05-25T00:12:19.080Z,15.90
2018-05-25T00:15:22.475Z,15.80
2018-05-25T00:18:25.799Z,15.87
2018-05-25T00:21:29.167Z,15.84
2018-05-25T00:24:32.564Z,15.80
2018-05-25T00:27:35.898Z,15.76
2018-05-25T00:30:39.983Z,15.79
2018-05-25T00:33:44.081Z,15.78
2018-05-25T00:36:47.423Z,15.71
2018-05-25T00:39:50.726Z,15.70
2018-05-25T00:42:54.072Z,15.67
2018-05-25T00:45:57.485Z,15.62
2018-05-25T00:49:01.575Z,15.64
2018-05-25T00:52:04.945Z,15.60
2018-05-25T00:55:25.981Z,15.60
2018-05-25T00:58:29.310Z,15.58
2018-05-25T01:01:32.694Z,15.54
2018-05-25T01:04:36.033Z,15.55
2018-05-25T01:07:39.368Z,15.59
2018-05-25T01:10:42.677Z,15.52
2018-05-25T01:13:45.989Z,15.53
2018-05-25T01:16:49.296Z,15.52
2018-05-25T01:19:52.666Z,15.54
2018-05-25T01:22:56.053Z,15.55
2018-05-25T01:25:59.327Z,15.50
2018-05-25T01:29:02.645Z,15.50
2018-05-25T01:32:05.989Z,15.53
2018-05-25T01:35:10.047Z,15.50
2018-05-25T01:38:13.414Z,15.53
2018-05-25T01:41:16.717Z,15.58
2018-05-25T01:44:20.140Z,15.57
2018-05-25T01:47:23.552Z,15.61
2018-05-25T01:50:26.857Z,15.60
2018-05-25T01:53:30.973Z,15.61
2018-05-25T01:56:34.352Z,15.62
2018-05-25T01:59:37.740Z,15.67
2018-05-25T02:02:41.150Z,15.63
2018-05-25T02:05:44.536Z,15.62
2018-05-25T02:08:47.950Z,15.58
2018-05-25T02:11:51.261Z,15.55
2018-05-25T02:14:54.625Z,15.59
2018-05-25T02:17:58.025Z,15.59
2018-05-25T02:21:01.430Z,15.56
2018-05-25T02:24:04.719Z,15.58
2018-05-25T02:27:08.124Z,15.57
2018-05-25T02:30:11.525Z,15.61
2018-05-25T02:33:14.909Z,15.58
2018-05-25T02:36:18.185Z,15.60
2018-05-25T02:39:21.772Z,15.54
2018-05-25T02:42:25.096Z,15.58
2018-05-25T02:45:28.418Z,15.52
2018-05-25T02:48:32.521Z,15.53
2018-05-25T02:51:35.920Z,15.52
2018-05-25T02:54:39.319Z,15.53
2018-05-25T02:57:42.723Z,15.48
2018-05-25T03:00:46.029Z,15.48
2018-05-25T03:03:49.463Z,15.44
2018-05-25T03:06:52.776Z,15.41
2018-05-25T03:09:56.208Z,15.43
2018-05-25T03:12:59.596Z,15.51
2018-05-25T03:16:03.000Z,15.53
2018-05-25T03:19:06.389Z,15.52
2018-05-25T03:22:09.788Z,15.50
2018-05-25T03:25:13.180Z,15.55
2018-05-25T03:28:16.495Z,15.61
2018-05-25T03:31:19.800Z,15.74
2018-05-25T03:34:23.184Z,15.86
2018-05-25T03:37:26.574Z,15.98
2018-05-25T03:40:30.870Z,16.08
2018-05-25T03:43:34.292Z,16.22
2018-05-25T03:46:37.613Z,16.17
2018-05-25T03:49:40.991Z,16.22
2018-05-25T03:52:44.310Z,16.25
2018-05-25T03:55:48.403Z,16.26
2018-05-25T03:59:09.580Z,16.18
2018-05-25T04:02:12.927Z,16.11
2018-05-25T04:05:17.179Z,16.01
2018-05-25T04:08:20.527Z,16.00
2018-05-25T04:11:23.917Z,15.93
2018-05-25T04:14:27.405Z,16.01
2018-05-25T04:17:30.829Z,16.03
2018-05-25T04:20:34.205Z,16.06
2018-05-25T04:23:37.630Z,16.01
2018-05-25T04:26:42.585Z,15.98
2018-05-25T04:29:45.946Z,15.95
2018-05-25T04:32:49.256Z,15.92
2018-05-25T04:35:52.624Z,15.98
2018-05-25T04:38:55.953Z,15.98
2018-05-25T04:42:00.074Z,16.00
2018-05-25T04:45:04.156Z,15.98
2018-05-25T04:48:07.550Z,16.05
2018-05-25T04:51:10.883Z,16.02
2018-05-25T04:54:14.251Z,16.10
2018-05-25T04:57:17.528Z,16.08
2018-05-25T05:00:20.981Z,16.12
2018-05-25T05:03:25.102Z,16.17
2018-05-25T05:06:29.286Z,16.21
2018-05-25T05:09:32.613Z,16.24
2018-05-25T05:12:35.913Z,16.21
2018-05-25T05:15:39.235Z,16.29
2018-05-25T05:18:42.582Z,16.30
2018-05-25T05:21:45.978Z,16.36
2018-05-25T05:24:49.375Z,16.41
2018-05-25T05:27:52.804Z,16.41
2018-05-25T05:30:56.892Z,16.53
2018-05-25T05:34:00.183Z,16.59
2018-05-25T05:37:03.589Z,16.58
2018-05-25T05:40:06.919Z,16.60
2018-05-25T05:43:10.262Z,16.64
2018-05-25T05:46:13.592Z,16.71
2018-05-25T05:49:16.930Z,16.78
2018-05-25T05:52:21.106Z,16.82
2018-05-25T05:55:24.511Z,16.86
2018-05-25T05:58:27.843Z,16.90
2018-05-25T06:01:31.943Z,16.93
2018-05-25T06:04:35.258Z,16.97
2018-05-25T06:07:39.377Z,16.99
2018-05-25T06:10:43.420Z,17.05
2018-05-25T06:13:46.960Z,17.06
2018-05-25T06:16:50.347Z,17.09
2018-05-25T06:19:53.708Z,17.15
2018-05-25T06:22:57.014Z,17.17
2018-05-25T06:26:00.338Z,17.20
2018-05-25T06:29:03.665Z,17.20
2018-05-25T06:32:07.857Z,17.24
2018-05-25T06:35:11.142Z,17.37
2018-05-25T06:38:14.485Z,17.45
2018-05-25T06:41:17.877Z,17.59
2018-05-25T06:44:21.257Z,17.59
2018-05-25T06:47:24.671Z,17.58
2018-05-25T06:50:28.056Z,17.69
2018-05-25T06:53:31.469Z,17.74
2018-05-25T06:56:34.863Z,17.81
2018-05-25T06:59:38.165Z,17.93
2018-05-25T07:02:41.561Z,17.90
2018-05-25T07:05:44.883Z,18.03
2018-05-25T07:08:49.038Z,18.15
2018-05-25T07:11:52.370Z,18.20
2018-05-25T07:14:55.718Z,18.17
2018-05-25T07:17:59.813Z,18.35
2018-05-25T07:21:03.941Z,18.43
2018-05-25T07:24:08.021Z,18.49
2018-05-25T07:27:11.361Z,18.62
2018-05-25T07:30:15.538Z,18.72
2018-05-25T07:33:18.902Z,18.75
2018-05-25T07:36:22.352Z,18.85
2018-05-25T07:39:25.738Z,18.90
2018-05-25T07:42:29.133Z,19.03
2018-05-25T07:45:32.498Z,19.10
2018-05-25T07:48:35.793Z,19.16
2018-05-25T07:51:39.170Z,19.22
2018-05-25T07:54:43.338Z,19.29
2018-05-25T07:57:46.737Z,19.41
2018-05-25T08:00:50.070Z,19.40
2018-05-25T08:03:54.210Z,19.39
2018-05-25T08:06:57.538Z,19.44
2018-05-25T08:10:00.881Z,19.43
2018-05-25T08:13:04.971Z,19.53
2018-05-25T08:16:08.330Z,19.42
2018-05-25T08:19:11.637Z,19.51
2018-05-25T08:22:15.067Z,19.63
2018-05-25T08:25:18.460Z,19.74
2018-05-25T08:28:21.854Z,19.70
2018-05-25T08:31:25.192Z,19.58
2018-05-25T08:34:28.658Z,19.56
2018-05-25T08:37:31.969Z,19.55
2018-05-25T08:40:35.314Z,19.63
2018-05-25T08:43:38.664Z,19.77
2018-05-25T08:46:42.000Z,19.80
2018-05-25T08:49:46.646Z,19.83
2018-05-25T08:52:49.994Z,19.90
2018-05-25T08:55:54.071Z,20.03
2018-05-25T08:58:57.386Z,20.15
2018-05-25T09:02:01.537Z,20.22
2018-05-25T09:05:04.868Z,20.39
2018-05-25T09:08:08.174Z,20.48
2018-05-25T09:11:12.315Z,20.52
2018-05-25T09:14:15.692Z,20.65
2018-05-25T09:17:19.183Z,20.80
2018-05-25T09:20:22.481Z,20.83
2018-05-25T09:23:25.840Z,20.90
2018-05-25T09:26:29.155Z,20.94
2018-05-25T09:29:32.570Z,21.04
2018-05-25T09:32:35.969Z,21.19
2018-05-25T09:35:39.365Z,21.19
2018-05-25T09:38:42.776Z,21.29
2018-05-25T09:41:46.167Z,21.27
2018-05-25T09:44:49.567Z,21.29
2018-05-25T09:47:52.951Z,21.28
2018-05-25T09:50:56.372Z,21.34
2018-05-25T09:53:59.770Z,21.33
2018-05-25T09:57:03.106Z,21.48
2018-05-25T10:00:06.454Z,21.55
2018-05-25T10:03:09.926Z,21.68
2018-05-25T10:06:13.277Z,21.59
2018-05-25T10:09:17.386Z,21.47
2018-05-25T10:12:20.759Z,21.53
2018-05-25T10:15:24.080Z,21.70
2018-05-25T10:18:27.446Z,21.75
2018-05-25T10:21:30.756Z,21.64
2018-05-25T10:24:34.119Z,21.67
2018-05-25T10:27:37.547Z,21.87
2018-05-25T10:30:41.752Z,21.96
2018-05-25T10:33:45.074Z,22.12
2018-05-25T10:36:48.464Z,22.17
2018-05-25T10:39:51.763Z,21.88
2018-05-25T10:42:55.953Z,21.79
2018-05-25T10:45:59.270Z,22.01
2018-05-25T10:49:02.653Z,22.13
2018-05-25T10:52:05.981Z,21.99
2018-05-25T10:55:10.101Z,22.06
2018-05-25T10:58:14.150Z,22.08
2018-05-25T11:01:17.569Z,22.05
2018-05-25T11:04:20.898Z,22.02
2018-05-25T11:07:24.245Z,22.13
2018-05-25T11:10:27.533Z,22.41
2018-05-25T11:13:30.886Z,22.64
2018-05-25T11:16:34.969Z,22.62
2018-05-25T11:19:38.314Z,22.59
2018-05-25T11:22:42.401Z,22.69
2018-05-25T11:25:45.787Z,22.53
2018-05-25T11:28:49.110Z,22.64
2018-05-25T11:31:53.216Z,22.63
2018-05-25T11:34:57.286Z,22.65
2018-05-25T11:38:00.617Z,22.67
2018-05-25T11:41:05.445Z,22.56
2018-05-25T11:44:08.769Z,22.44
2018-05-25T11:47:12.146Z,22.37
2018-05-25T11:50:15.521Z,22.19
2018-05-25T11:53:18.816Z,22.20
2018-05-25T11:56:22.170Z,22.08
2018-05-25T11:59:25.517Z,21.98
2018-05-25T12:02:28.905Z,21.83
2018-05-25T12:05:32.296Z,21.84
2018-05-25T12:08:35.688Z,21.81
2018-05-25T12:11:39.000Z,21.76
2018-05-25T12:14:42.348Z,21.90
2018-05-25T12:17:45.688Z,21.90
2018-05-25T12:20:49.040Z,21.86
2018-05-25T12:23:52.377Z,22.09
2018-05-25T12:26:55.767Z,22.00
2018-05-25T12:29:59.172Z,22.00
2018-05-25T12:33:02.523Z,21.99
2018-05-25T12:36:05.830Z,21.91
2018-05-25T12:39:09.273Z,22.03
2018-05-25T12:42:12.675Z,22.04
2018-05-25T12:45:16.068Z,21.96
2018-05-25T12:48:19.472Z,21.94
2018-05-25T12:51:22.810Z,21.87
2018-05-25T12:54:26.158Z,21.94
2018-05-25T12:57:29.490Z,22.04
2018-05-25T13:00:33.569Z,22.35
2018-05-25T13:03:36.902Z,22.26
2018-05-25T13:06:41.000Z,22.17
2018-05-25T13:09:44.365Z,22.04
2018-05-25T13:12:47.761Z,22.14
2018-05-25T13:15:51.119Z,22.22
2018-05-25T13:18:54.484Z,22.20
2018-05-25T13:21:57.853Z,22.21
2018-05-25T13:25:01.252Z,22.19
2018-05-25T13:28:04.600Z,22.23
2018-05-25T13:31:07.953Z,22.25
2018-05-25T13:34:11.300Z,22.20
2018-05-25T13:37:14.612Z,22.21
2018-05-25T13:40:17.987Z,22.08
2018-05-25T13:43:21.337Z,22.08
2018-05-25T13:46:24.737Z,22.21
2018-05-25T13:49:28.134Z,22.18
2018-05-25T13:52:31.522Z,22.12
2018-05-25T13:55:34.813Z,22.03
2018-05-25T13:58:38.226Z,22.08
2018-05-25T14:01:41.588Z,22.23
2018-05-25T14:04:45.009Z,22.34
2018-05-25T14:07:48.436Z,22.46
2018-05-25T14:10:51.812Z,22.48
2018-05-25T14:13:55.131Z,22.43
2018-05-25T14:16:58.447Z,22.29
2018-05-25T14:20:01.910Z,22.28
2018-05-25T14:23:05.254Z,22.21
2018-05-25T14:26:08.565Z,22.30
2018-05-25T14:29:11.992Z,22.20
2018-05-25T14:32:15.328Z,22.23
2018-05-25T14:35:19.506Z,22.17
2018-05-25T14:38:25.381Z,22.11
2018-05-25T14:41:28.748Z,22.04
2018-05-25T14:44:32.154Z,21.92
2018-05-25T14:47:35.521Z,22.06
2018-05-25T14:50:38.838Z,22.12
2018-05-25T14:53:42.256Z,22.12
2018-05-25T14:56:45.684Z,22.09
2018-05-25T14:59:49.833Z,22.16
2018-05-25T15:02:53.136Z,22.25
2018-05-25T15:05:56.439Z,22.12
2018-05-25T15:08:59.853Z,22.33
2018-05-25T15:12:03.225Z,22.40
2018-05-25T15:15:06.540Z,22.52
2018-05-25T15:18:09.884Z,22.86
2018-05-25T15:21:14.004Z,22.96
2018-05-25T15:24:17.357Z,23.32
2018-05-25T15:27:20.751Z,23.39
2018-05-25T15:30:24.101Z,23.30
2018-05-25T15:33:27.432Z,23.08
2018-05-25T15:36:30.784Z,23.11
2018-05-25T15:39:34.115Z,23.16
2018-05-25T15:42:37.533Z,23.54
2018-05-25T15:45:40.930Z,23.72
2018-05-25T15:48:44.282Z,24.00
2018-05-25T15:51:47.604Z,23.83
2018-05-25T15:54:51.028Z,23.79
2018-05-25T15:57:54.419Z,24.09
2018-05-25T16:00:57.768Z,23.89
2018-05-25T16:04:01.132Z,24.05
2018-05-25T16:07:04.479Z,24.15
2018-05-25T16:10:07.825Z,24.09
2018-05-25T16:13:11.219Z,23.85
2018-05-25T16:16:14.613Z,24.10
2018-05-25T16:19:18.106Z,24.04
2018-05-25T16:22:21.451Z,24.03
2018-05-25T16:25:24.792Z,24.21
2018-05-25T16:28:28.201Z,24.30
2018-05-25T16:31:31.548Z,24.06
2018-05-25T16:34:34.864Z,24.44
2018-05-25T16:37:38.317Z,24.05
2018-05-25T16:40:42.498Z,23.80
2018-05-25T16:43:45.897Z,23.74
2018-05-25T16:46:49.209Z,23.51
2018-05-25T16:49:52.580Z,23.69
2018-05-25T16:52:55.915Z,23.88
2018-05-25T16:55:59.355Z,23.81
2018-05-25T16:59:02.651Z,23.37
2018-05-25T17:02:05.988Z,22.77
2018-05-25T17:05:09.396Z,22.55
2018-05-25T17:08:12.715Z,22.50
2018-05-25T17:11:16.059Z,22.38
2018-05-25T17:14:19.491Z,22.39
2018-05-25T17:17:22.875Z,21.90
2018-05-25T17:20:26.228Z,21.65
2018-05-25T17:23:29.554Z,21.30
2018-05-25T17:26:32.942Z,21.11
2018-05-25T17:29:36.240Z,20.95
2018-05-25T17:32:39.554Z,20.87
2018-05-25T17:35:43.659Z,20.73
2018-05-25T17:38:47.006Z,20.66
2018-05-25T17:41:50.344Z,20.60
2018-05-25T17:44:53.762Z,20.55
2018-05-25T17:47:57.099Z,20.50
2018-05-25T17:51:00.461Z,20.46
2018-05-25T17:54:03.799Z,20.42
2018-05-25T17:57:07.202Z,20.27
2018-05-25T18:00:10.634Z,20.19
2018-05-25T18:03:14.114Z,20.10
2018-05-25T18:06:17.374Z,20.05
2018-05-25T18:09:20.780Z,19.98
2018-05-25T18:12:24.132Z,19.95
2018-05-25T18:15:27.506Z,19.87
2018-05-25T18:18:30.919Z,19.79
2018-05-25T18:21:34.284Z,19.79
2018-05-25T18:24:37.710Z,19.76
2018-05-25T18:27:41.127Z,19.69
2018-05-25T18:30:44.503Z,19.51
2018-05-25T18:33:47.892Z,19.44
2018-05-25T18:36:51.233Z,19.36
2018-05-25T18:39:55.342Z,19.23
2018-05-25T18:42:59.549Z,19.08
2018-05-25T18:46:03.050Z,18.98
2018-05-25T18:49:06.430Z,18.81
2018-05-25T18:52:09.913Z,18.61
2018-05-25T18:55:13.342Z,18.44
2018-05-25T18:58:16.679Z,18.28
2018-05-25T19:01:20.089Z,18.16
2018-05-25T19:04:23.517Z,18.04
2018-05-25T19:07:27.011Z,17.91
2018-05-25T19:10:30.525Z,17.79
2018-05-25T19:13:33.850Z,17.66
2018-05-25T19:16:38.068Z,17.52
2018-05-25T19:19:43.058Z,17.43
2018-05-25T19:22:46.396Z,17.33
2018-05-25T19:25:50.480Z,17.22
2018-05-25T19:28:53.846Z,17.08
2018-05-25T19:31:57.293Z,16.98
2018-05-25T19:35:00.675Z,16.89
2018-05-25T19:38:04.002Z,16.84
2018-05-25T19:41:08.118Z,16.80
2018-05-25T19:44:12.206Z,16.77
2018-05-25T19:47:15.609Z,16.74
2018-05-25T19:50:18.935Z,16.67
2018-05-25T19:53:22.285Z,16.53
2018-05-25T19:56:27.257Z,16.43
2018-05-25T19:59:31.386Z,16.28
2018-05-25T20:02:34.693Z,16.18
2018-05-25T20:05:38.810Z,16.05
2018-05-25T20:08:42.134Z,15.94
2018-05-25T20:11:45.490Z,15.87
2018-05-25T20:14:48.790Z,15.83
2018-05-25T20:17:52.157Z,15.88
2018-05-25T20:20:56.239Z,15.94
2018-05-25T20:23:59.649Z,15.91
2018-05-25T20:27:02.965Z,16.04
2018-05-25T20:30:07.070Z,16.24
2018-05-25T20:33:11.197Z,16.39
2018-05-25T20:36:15.379Z,16.60
2018-05-25T20:39:18.769Z,16.75
2018-05-25T20:42:22.176Z,16.82
2018-05-25T20:45:25.522Z,16.90
2018-05-25T20:48:28.862Z,16.95
2018-05-25T20:51:32.183Z,17.02
2018-05-25T20:54:36.298Z,17.13
2018-05-25T20:57:40.494Z,17.14
2018-05-25T21:00:43.894Z,17.23
2018-05-25T21:03:47.288Z,17.26
2018-05-25T21:06:50.690Z,17.32
2018-05-25T21:09:54.023Z,17.32
2018-05-25T21:12:58.192Z,17.35
2018-05-25T21:16:01.510Z,17.39
2018-05-25T21:19:04.854Z,17.39
2018-05-25T21:22:08.164Z,17.44
2018-05-25T21:25:11.518Z,17.50
2018-05-25T21:28:15.611Z,17.53
2018-05-25T21:31:18.967Z,17.55
2018-05-25T21:34:22.389Z,17.58
2018-05-25T21:37:25.753Z,17.54
2018-05-25T21:40:29.268Z,17.49
2018-05-25T21:43:32.690Z,17.44
2018-05-25T21:46:36.012Z,17.41
2018-05-25T21:49:40.129Z,17.38
2018-05-25T21:52:44.326Z,17.38
2018-05-25T21:55:49.173Z,17.29
2018-05-25T21:58:53.322Z,17.24
2018-05-25T22:01:56.673Z,17.17
2018-05-25T22:05:00.761Z,17.13
2018-05-25T22:08:04.157Z,17.06
2018-05-25T22:11:07.596Z,17.05
2018-05-25T22:14:11.744Z,17.00
2018-05-25T22:17:15.083Z,16.99
2018-05-25T22:20:18.548Z,16.95
2018-05-25T22:23:22.113Z,16.91
2018-05-25T22:26:26.233Z,16.93
2018-05-25T22:29:30.308Z,16.89
2018-05-25T22:32:33.769Z,16.87
2018-05-25T22:35:37.150Z,16.84
2018-05-25T22:38:40.517Z,16.78
2018-05-25T22:41:43.851Z,16.72
2018-05-25T22:45:05.223Z,16.73
2018-05-25T22:48:26.386Z,16.69
2018-05-25T22:51:47.588Z,16.61
2018-05-25T22:54:59.326Z,16.54
2018-05-25T22:58:02.652Z,16.52
2018-05-25T23:01:08.451Z,16.56
2018-05-25T23:04:11.792Z,16.50
2018-05-25T23:07:15.176Z,16.42
2018-05-25T23:10:18.488Z,16.35
2018-05-25T23:13:21.778Z,16.31
2018-05-25T23:16:25.974Z,16.27
2018-05-25T23:19:29.370Z,16.27
2018-05-25T23:22:32.778Z,16.26
2018-05-25T23:25:36.164Z,16.16
2018-05-25T23:28:39.514Z,16.09
2018-05-25T23:31:43.676Z,16.03
2018-05-25T23:34:46.976Z,15.99
2018-05-25T23:37:50.312Z,15.96
2018-05-25T23:40:54.363Z,15.86
2018-05-25T23:43:57.725Z,15.76
2018-05-25T23:47:01.810Z,15.73
2018-05-25T23:50:05.153Z,15.64
2018-05-25T23:53:08.451Z,15.54
2018-05-25T23:56:11.811Z,15.49
2018-05-25T23:59:15.193Z,15.47
